createdAt,value
2023-02-14T00:00:31.072Z,6.43
2023-02-14T00:02:59.822Z,6.44
2023-02-14T00:05:28.425Z,6.39
2023-02-14T00:07:58.622Z,6.41
2023-02-14T00:10:27.427Z,6.37
2023-02-14T00:12:55.932Z,6.35
2023-02-14T00:15:25.565Z,6.39
2023-02-14T00:17:56.205Z,6.31
2023-02-14T00:20:25.484Z,6.37
2023-02-14T00:22:54.459Z,6.36
2023-02-14T00:25:23.008Z,6.30
2023-02-14T00:27:51.584Z,6.37
2023-02-14T00:30:20.189Z,6.36
2023-02-14T00:32:50.315Z,6.35
2023-02-14T00:35:19.215Z,6.31
2023-02-14T00:37:48.178Z,6.24
2023-02-14T00:40:17.281Z,6.32
2023-02-14T00:42:45.931Z,6.30
2023-02-14T00:45:14.649Z,6.31
2023-02-14T00:47:43.132Z,6.27
2023-02-14T00:50:13.350Z,6.24
2023-02-14T00:52:41.831Z,6.25
2023-02-14T00:55:10.550Z,6.24
2023-02-14T00:57:39.004Z,6.23
2023-02-14T01:00:09.740Z,6.23
2023-02-14T01:02:38.562Z,6.18
2023-02-14T01:05:08.051Z,6.22
2023-02-14T01:07:38.148Z,6.14
2023-02-14T01:10:08.137Z,6.15
2023-02-14T01:12:36.554Z,6.11
2023-02-14T01:15:06.772Z,6.13
2023-02-14T01:17:35.560Z,6.11
2023-02-14T01:20:04.624Z,6.04
2023-02-14T01:22:38.599Z,5.86
2023-02-14T01:25:07.842Z,5.98
2023-02-14T01:27:36.268Z,5.92
2023-02-14T01:30:06.220Z,5.99
2023-02-14T01:32:35.308Z,5.87
2023-02-14T01:35:04.803Z,5.93
2023-02-14T01:37:33.392Z,5.90
2023-02-14T01:40:03.647Z,5.86
2023-02-14T01:42:33.918Z,5.92
2023-02-14T01:45:06.738Z,5.85
2023-02-14T01:47:40.198Z,5.76
2023-02-14T01:50:12.740Z,5.78
2023-02-14T01:52:46.671Z,5.83
2023-02-14T01:55:21.944Z,5.85
2023-02-14T01:57:53.738Z,5.79
2023-02-14T02:00:41.082Z,5.78
2023-02-14T02:03:10.318Z,5.61
2023-02-14T02:05:45.547Z,5.72
2023-02-14T02:08:14.639Z,5.63
2023-02-14T02:10:44.657Z,5.62
2023-02-14T02:13:18.934Z,5.56
2023-02-14T02:15:59.775Z,5.34
2023-02-14T02:18:42.647Z,5.42
2023-02-14T02:22:10.751Z,5.48
2023-02-14T02:24:52.272Z,5.46
2023-02-14T02:28:13.649Z,5.39
2023-02-14T02:31:44.821Z,5.35
2023-02-14T02:34:41.562Z,5.35
2023-02-14T02:37:34.017Z,5.32
2023-02-14T02:40:18.381Z,5.31
2023-02-14T02:43:02.064Z,5.28
2023-02-14T02:46:01.319Z,5.10
2023-02-14T02:48:40.760Z,5.15
2023-02-14T02:51:32.685Z,5.21
2023-02-14T02:54:11.762Z,5.17
2023-02-14T02:56:47.552Z,5.13
2023-02-14T02:59:20.756Z,5.16
2023-02-14T03:01:56.485Z,5.18
2023-02-14T03:04:44.974Z,5.19
2023-02-14T03:07:31.719Z,5.00
2023-02-14T03:10:06.413Z,5.15
2023-02-14T03:13:40.079Z,5.13
2023-02-14T03:16:33.275Z,5.13
2023-02-14T03:20:00.018Z,5.00
2023-02-14T03:22:49.761Z,4.87
2023-02-14T03:25:40.143Z,4.87
2023-02-14T03:28:18.963Z,4.88
2023-02-14T03:30:59.281Z,4.66
2023-02-14T03:33:36.136Z,4.93
2023-02-14T03:36:12.157Z,4.79
2023-02-14T03:38:51.354Z,4.93
2023-02-14T03:41:27.348Z,4.83
2023-02-14T03:44:00.381Z,5.02
2023-02-14T03:46:33.492Z,4.96
2023-02-14T03:49:06.868Z,4.99
2023-02-14T03:51:37.033Z,5.06
2023-02-14T03:54:10.486Z,4.90
2023-02-14T03:56:47.381Z,4.78
2023-02-14T03:59:19.582Z,4.77
2023-02-14T04:01:53.764Z,4.84
2023-02-14T04:04:27.292Z,4.89
2023-02-14T04:06:56.072Z,4.88
2023-02-14T04:09:24.586Z,4.75
2023-02-14T04:11:54.456Z,4.65
2023-02-14T04:14:22.810Z,4.76
2023-02-14T04:17:08.743Z,4.87
2023-02-14T04:19:37.032Z,4.58
2023-02-14T04:22:05.350Z,4.63
2023-02-14T04:24:33.610Z,4.82
2023-02-14T04:27:13.598Z,4.84
2023-02-14T04:29:45.047Z,4.74
2023-02-14T04:32:16.698Z,4.74
2023-02-14T04:34:45.631Z,4.78
2023-02-14T04:37:18.063Z,4.73
2023-02-14T04:39:46.780Z,4.74
2023-02-14T04:42:17.584Z,4.69
2023-02-14T04:44:45.893Z,4.51
2023-02-14T04:47:15.757Z,4.63
2023-02-14T04:49:44.374Z,4.50
2023-02-14T04:52:13.240Z,4.43
2023-02-14T04:54:41.624Z,4.63
2023-02-14T04:57:10.424Z,4.71
2023-02-14T04:59:40.146Z,4.61
2023-02-14T05:02:08.652Z,4.78
2023-02-14T05:04:37.200Z,4.75
2023-02-14T05:07:05.757Z,4.45
2023-02-14T05:09:34.264Z,4.31
2023-02-14T05:12:02.741Z,4.64
2023-02-14T05:14:33.952Z,4.59
2023-02-14T05:17:06.239Z,4.78
2023-02-14T05:19:36.585Z,4.79
2023-02-14T05:22:05.743Z,4.92
2023-02-14T05:24:34.489Z,4.98
2023-02-14T05:27:03.374Z,5.06
2023-02-14T05:29:33.028Z,5.01
2023-02-14T05:32:05.693Z,5.00
2023-02-14T05:34:35.901Z,5.10
2023-02-14T05:37:07.308Z,5.08
2023-02-14T05:39:36.518Z,5.08
2023-02-14T05:44:36.106Z,4.94
2023-02-14T05:47:04.758Z,5.08
2023-02-14T05:49:38.518Z,5.10
2023-02-14T05:52:07.863Z,5.21
2023-02-14T05:54:36.893Z,5.23
2023-02-14T05:57:06.429Z,5.23
2023-02-14T05:59:35.124Z,5.19
2023-02-14T06:02:06.257Z,5.18
2023-02-14T06:04:36.490Z,5.18
2023-02-14T06:07:06.563Z,5.16
2023-02-14T06:09:38.180Z,5.16
2023-02-14T06:12:10.682Z,5.03
2023-02-14T06:14:41.506Z,5.13
2023-02-14T06:17:10.664Z,5.09
2023-02-14T06:19:43.602Z,5.10
2023-02-14T06:22:12.329Z,5.21
2023-02-14T06:24:41.157Z,5.22
2023-02-14T06:27:09.867Z,5.23
2023-02-14T06:29:38.484Z,5.18
2023-02-14T06:32:07.593Z,5.18
2023-02-14T06:34:39.004Z,5.15
2023-02-14T06:37:09.112Z,5.17
2023-02-14T06:39:39.269Z,5.16
2023-02-14T06:42:07.921Z,5.14
2023-02-14T06:44:36.627Z,5.10
2023-02-14T06:47:06.010Z,5.12
2023-02-14T06:49:34.625Z,5.10
2023-02-14T06:52:03.348Z,5.05
2023-02-14T06:54:33.467Z,5.06
2023-02-14T06:57:03.527Z,5.07
2023-02-14T06:59:31.961Z,5.12
2023-02-14T07:02:00.618Z,5.18
2023-02-14T07:04:29.100Z,5.11
2023-02-14T07:06:57.775Z,5.19
2023-02-14T07:09:26.459Z,4.76
2023-02-14T07:11:56.770Z,4.97
2023-02-14T07:14:27.598Z,5.16
2023-02-14T07:16:56.456Z,5.01
2023-02-14T07:19:25.283Z,4.97
2023-02-14T07:21:53.815Z,5.18
2023-02-14T07:24:22.401Z,5.24
2023-02-14T07:26:50.896Z,5.32
2023-02-14T07:29:21.023Z,5.12
2023-02-14T07:31:49.809Z,5.19
2023-02-14T07:34:18.357Z,5.23
2023-02-14T07:36:46.932Z,5.19
2023-02-14T07:39:15.528Z,4.96
2023-02-14T07:41:44.012Z,5.15
2023-02-14T07:44:12.857Z,5.49
2023-02-14T07:46:42.927Z,5.40
2023-02-14T07:49:12.018Z,5.50
2023-02-14T07:51:40.864Z,5.57
2023-02-14T07:54:10.395Z,5.52
2023-02-14T07:56:39.361Z,5.55
2023-02-14T07:59:08.135Z,5.80
2023-02-14T08:01:37.495Z,5.85
2023-02-14T08:04:07.807Z,5.96
2023-02-14T08:06:36.585Z,5.85
2023-02-14T08:09:05.349Z,6.19
2023-02-14T08:11:51.331Z,6.29
2023-02-14T08:14:20.159Z,6.46
2023-02-14T08:16:48.940Z,6.06
2023-02-14T08:19:18.883Z,6.37
2023-02-14T08:21:47.647Z,6.54
2023-02-14T08:24:16.202Z,6.55
2023-02-14T08:26:44.696Z,6.65
2023-02-14T08:29:15.007Z,6.68
2023-02-14T08:31:45.526Z,6.64
2023-02-14T08:34:14.476Z,6.90
2023-02-14T08:36:44.925Z,6.71
2023-02-14T08:39:13.366Z,7.21
2023-02-14T08:41:46.963Z,7.08
2023-02-14T08:44:16.719Z,6.84
2023-02-14T08:46:45.386Z,7.46
2023-02-14T08:49:13.994Z,7.67
2023-02-14T08:51:45.150Z,7.91
2023-02-14T08:54:13.795Z,7.47
2023-02-14T08:56:42.465Z,7.85
2023-02-14T08:59:11.367Z,7.87
2023-02-14T09:01:39.914Z,7.68
2023-02-14T09:04:08.500Z,8.17
2023-02-14T09:06:39.730Z,8.34
2023-02-14T09:09:09.792Z,8.11
2023-02-14T09:11:38.944Z,8.38
2023-02-14T09:14:07.594Z,8.84
2023-02-14T09:16:36.503Z,9.07
2023-02-14T09:19:05.362Z,9.35
2023-02-14T09:21:37.853Z,9.22
2023-02-14T09:24:08.351Z,9.23
2023-02-14T09:26:40.865Z,9.50
2023-02-14T09:29:11.520Z,9.70
2023-02-14T09:31:40.256Z,9.72
2023-02-14T09:34:26.574Z,9.70
2023-02-14T09:36:55.603Z,9.52
2023-02-14T09:39:25.877Z,9.95
2023-02-14T09:42:28.314Z,10.35
2023-02-14T09:45:02.487Z,10.69
2023-02-14T09:47:41.066Z,10.43
2023-02-14T09:50:20.871Z,10.45
2023-02-14T09:52:53.617Z,10.71
2023-02-14T09:55:33.886Z,10.81
2023-02-14T09:58:12.131Z,11.01
2023-02-14T10:00:48.826Z,11.11
2023-02-14T10:04:07.179Z,11.77
2023-02-14T10:06:53.658Z,11.45
2023-02-14T10:09:50.238Z,11.75
2023-02-14T10:12:26.415Z,12.64
2023-02-14T10:14:57.921Z,12.71
2023-02-14T10:17:37.616Z,13.43
2023-02-14T10:20:17.815Z,13.33
2023-02-14T10:22:56.287Z,13.73
2023-02-14T10:25:30.201Z,14.15
2023-02-14T10:28:02.769Z,14.17
2023-02-14T10:30:40.019Z,14.94
2023-02-14T10:33:17.781Z,13.79
2023-02-14T10:35:50.434Z,14.26
2023-02-14T10:38:42.462Z,14.66
2023-02-14T10:41:33.169Z,14.68
2023-02-14T10:44:20.500Z,14.85
2023-02-14T10:46:57.812Z,14.69
2023-02-14T10:49:40.758Z,15.33
2023-02-14T10:52:19.440Z,14.97
2023-02-14T10:54:55.671Z,14.42
2023-02-14T10:57:30.486Z,14.15
2023-02-14T11:00:05.170Z,14.77
2023-02-14T11:02:37.688Z,14.19
2023-02-14T11:05:07.642Z,14.54
2023-02-14T11:07:36.480Z,14.52
2023-02-14T11:10:11.308Z,14.14
2023-02-14T11:12:42.255Z,14.70
2023-02-14T11:15:24.739Z,15.13
2023-02-14T11:18:16.242Z,14.84
2023-02-14T11:20:44.810Z,15.08
2023-02-14T11:23:21.329Z,15.07
2023-02-14T11:25:57.354Z,15.49
2023-02-14T11:28:25.989Z,15.04
2023-02-14T11:30:56.781Z,14.87
2023-02-14T11:33:39.709Z,15.33
2023-02-14T11:36:14.375Z,15.18
2023-02-14T11:38:45.333Z,15.55
2023-02-14T11:41:18.171Z,14.59
2023-02-14T11:43:49.311Z,15.30
2023-02-14T11:46:30.529Z,15.16
2023-02-14T11:49:02.539Z,15.49
2023-02-14T11:51:35.388Z,15.76
2023-02-14T11:54:06.743Z,15.78
2023-02-14T11:56:57.924Z,15.56
2023-02-14T11:59:32.739Z,16.09
2023-02-14T12:02:21.387Z,15.75
2023-02-14T12:04:54.205Z,16.28
2023-02-14T12:07:29.734Z,16.22
2023-02-14T12:10:24.999Z,16.69
2023-02-14T12:13:03.082Z,17.00
2023-02-14T12:15:36.883Z,17.23
2023-02-14T12:18:58.515Z,16.49
2023-02-14T12:21:48.079Z,17.02
2023-02-14T12:24:30.853Z,17.30
2023-02-14T12:27:15.860Z,16.66
2023-02-14T12:29:50.444Z,17.25
2023-02-14T12:32:24.488Z,17.33
2023-02-14T12:35:03.425Z,16.93
2023-02-14T12:37:45.526Z,17.26
2023-02-14T12:40:28.981Z,16.81
2023-02-14T12:43:26.727Z,17.18
2023-02-14T12:46:21.769Z,17.11
2023-02-14T12:49:34.905Z,16.71
2023-02-14T12:52:26.692Z,16.65
2023-02-14T12:55:24.651Z,16.78
2023-02-14T12:58:01.676Z,16.95
2023-02-14T13:00:43.813Z,16.59
2023-02-14T13:03:43.906Z,17.03
2023-02-14T13:06:21.371Z,17.17
2023-02-14T13:09:14.956Z,17.39
2023-02-14T13:11:59.924Z,16.88
2023-02-14T13:14:46.726Z,17.08
2023-02-14T13:17:28.428Z,17.85
2023-02-14T13:20:09.956Z,17.64
2023-02-14T13:22:41.715Z,17.59
2023-02-14T13:25:31.736Z,18.34
2023-02-14T13:28:03.071Z,17.77
2023-02-14T13:30:35.202Z,17.17
2023-02-14T13:33:10.935Z,17.62
2023-02-14T13:35:40.931Z,17.14
2023-02-14T13:38:16.616Z,17.75
2023-02-14T13:40:48.432Z,16.77
2023-02-14T13:43:59.546Z,16.69
2023-02-14T13:46:53.325Z,16.95
2023-02-14T13:49:34.637Z,17.34
2023-02-14T13:52:06.603Z,17.77
2023-02-14T13:54:47.652Z,17.30
2023-02-14T13:57:34.062Z,17.18
2023-02-14T14:00:43.202Z,17.27
2023-02-14T14:03:16.408Z,17.14
2023-02-14T14:06:07.877Z,17.53
2023-02-14T14:08:41.405Z,17.53
2023-02-14T14:11:58.837Z,17.85
2023-02-14T14:14:41.161Z,17.70
2023-02-14T14:17:29.098Z,17.65
2023-02-14T14:19:58.154Z,17.45
2023-02-14T14:22:27.900Z,18.10
2023-02-14T14:25:03.998Z,18.34
2023-02-14T14:27:36.973Z,18.28
2023-02-14T14:30:08.844Z,18.27
2023-02-14T14:32:40.328Z,17.85
2023-02-14T14:35:19.706Z,18.14
2023-02-14T14:37:54.597Z,18.36
2023-02-14T14:40:28.906Z,17.63
2023-02-14T14:43:03.170Z,17.15
2023-02-14T14:45:32.643Z,17.49
2023-02-14T14:48:12.401Z,16.67
2023-02-14T14:50:46.577Z,16.93
2023-02-14T14:53:22.743Z,17.12
2023-02-14T14:55:52.373Z,16.70
2023-02-14T14:58:40.741Z,17.42
2023-02-14T15:01:16.130Z,17.41
2023-02-14T15:03:46.110Z,16.86
2023-02-14T15:06:20.546Z,17.71
2023-02-14T15:08:51.638Z,17.62
2023-02-14T15:11:41.884Z,17.68
2023-02-14T15:14:19.894Z,17.25
2023-02-14T15:16:52.584Z,17.68
2023-02-14T15:19:33.550Z,17.80
2023-02-14T15:22:03.855Z,17.58
2023-02-14T15:24:35.447Z,17.84
2023-02-14T15:27:05.485Z,17.71
2023-02-14T15:29:35.447Z,17.73
2023-02-14T15:32:04.536Z,17.92
2023-02-14T15:34:38.482Z,17.97
2023-02-14T15:37:08.068Z,17.98
2023-02-14T15:39:41.667Z,17.94
2023-02-14T15:42:25.886Z,17.94
2023-02-14T15:45:17.262Z,18.10
2023-02-14T15:47:50.215Z,18.03
2023-02-14T15:50:25.388Z,18.04
2023-02-14T15:52:57.011Z,18.10
2023-02-14T15:55:28.841Z,17.89
2023-02-14T15:58:01.069Z,17.69
2023-02-14T16:00:31.714Z,17.72
2023-02-14T16:03:06.118Z,17.48
2023-02-14T16:05:36.753Z,17.37
2023-02-14T16:08:08.898Z,17.07
2023-02-14T16:10:40.122Z,17.16
2023-02-14T16:13:20.592Z,17.04
2023-02-14T16:15:59.726Z,16.92
2023-02-14T16:18:39.197Z,16.68
2023-02-14T16:21:23.650Z,16.59
2023-02-14T16:24:13.910Z,16.36
2023-02-14T16:26:44.759Z,16.23
2023-02-14T16:29:16.148Z,16.08
2023-02-14T16:32:12.045Z,15.86
2023-02-14T16:34:38.614Z,15.63
2023-02-14T16:37:19.150Z,15.41
2023-02-14T16:39:48.126Z,15.33
2023-02-14T16:42:19.316Z,15.14
2023-02-14T16:44:48.517Z,14.89
2023-02-14T16:47:19.532Z,14.74
2023-02-14T16:49:48.748Z,14.62
2023-02-14T16:52:23.934Z,14.38
2023-02-14T16:54:52.586Z,14.07
2023-02-14T16:57:27.458Z,14.05
2023-02-14T16:59:57.819Z,13.96
2023-02-14T17:02:28.488Z,13.87
2023-02-14T17:04:57.496Z,13.73
2023-02-14T17:07:30.558Z,13.58
2023-02-14T17:10:06.375Z,13.45
2023-02-14T17:12:41.928Z,13.29
2023-02-14T17:15:17.248Z,13.07
2023-02-14T17:17:47.245Z,12.92
2023-02-14T17:20:20.061Z,12.88
2023-02-14T17:22:49.954Z,12.77
2023-02-14T17:25:18.778Z,12.67
2023-02-14T17:27:58.508Z,12.57
2023-02-14T17:30:27.214Z,12.40
2023-02-14T17:32:55.688Z,12.26
2023-02-14T17:35:24.342Z,12.18
2023-02-14T17:37:55.088Z,12.15
2023-02-14T17:40:24.192Z,12.05
2023-02-14T17:42:54.611Z,11.94
2023-02-14T17:45:24.420Z,11.91
2023-02-14T17:47:54.072Z,11.85
2023-02-14T17:50:23.473Z,11.76
2023-02-14T17:52:56.861Z,11.67
2023-02-14T17:55:26.022Z,11.57
2023-02-14T17:57:54.649Z,11.52
2023-02-14T18:00:24.826Z,11.37
2023-02-14T18:02:53.540Z,11.33
2023-02-14T18:05:22.027Z,11.25
2023-02-14T18:07:52.913Z,11.15
2023-02-14T18:10:23.043Z,11.07
2023-02-14T18:12:51.713Z,10.94
2023-02-14T18:15:21.034Z,10.90
2023-02-14T18:17:51.782Z,10.80
2023-02-14T18:20:23.240Z,10.73
2023-02-14T18:22:51.907Z,10.61
2023-02-14T18:25:20.898Z,10.48
2023-02-14T18:27:50.904Z,10.23
2023-02-14T18:30:20.056Z,9.80
2023-02-14T18:32:48.821Z,10.10
2023-02-14T18:35:17.969Z,10.21
2023-02-14T18:37:46.551Z,10.08
2023-02-14T18:40:20.233Z,10.09
2023-02-14T18:42:50.364Z,10.09
2023-02-14T18:45:19.513Z,10.01
2023-02-14T18:47:48.216Z,9.91
2023-02-14T18:50:17.568Z,9.92
2023-02-14T18:52:46.594Z,9.86
2023-02-14T18:55:15.654Z,9.81
2023-02-14T18:57:44.887Z,9.78
2023-02-14T19:00:18.558Z,9.72
2023-02-14T19:02:47.850Z,9.61
2023-02-14T19:05:16.872Z,9.59
2023-02-14T19:07:46.298Z,9.50
2023-02-14T19:10:14.980Z,9.54
2023-02-14T19:12:43.976Z,9.49
2023-02-14T19:15:17.631Z,9.49
2023-02-14T19:17:46.241Z,9.42
2023-02-14T19:20:16.591Z,9.36
2023-02-14T19:22:45.578Z,9.16
2023-02-14T19:25:14.271Z,9.09
2023-02-14T19:27:43.226Z,9.16
2023-02-14T19:30:12.788Z,9.11
2023-02-14T19:32:43.120Z,8.79
2023-02-14T19:35:11.901Z,8.76
2023-02-14T19:37:40.656Z,8.83
2023-02-14T19:40:11.590Z,8.82
2023-02-14T19:42:40.106Z,8.71
2023-02-14T19:45:09.669Z,8.59
2023-02-14T19:47:47.015Z,8.49
2023-02-14T19:50:19.434Z,8.50
2023-02-14T19:53:07.633Z,8.57
2023-02-14T19:55:36.677Z,8.50
2023-02-14T19:58:05.820Z,8.51
2023-02-14T20:00:35.291Z,8.37
2023-02-14T20:03:06.240Z,8.25
2023-02-14T20:05:39.965Z,8.18
2023-02-14T20:08:09.786Z,8.24
2023-02-14T20:10:38.657Z,8.20
2023-02-14T20:13:08.846Z,8.19
2023-02-14T20:15:38.422Z,8.16
2023-02-14T20:18:07.899Z,8.06
2023-02-14T20:20:52.013Z,8.18
2023-02-14T20:23:21.180Z,8.09
2023-02-14T20:25:49.829Z,8.06
2023-02-14T20:28:18.532Z,8.06
2023-02-14T20:30:47.197Z,7.92
2023-02-14T20:33:16.240Z,7.96
2023-02-14T20:35:46.399Z,7.75
2023-02-14T20:38:15.166Z,7.85
2023-02-14T20:40:44.632Z,7.91
2023-02-14T20:43:13.348Z,7.82
2023-02-14T20:45:41.978Z,7.85
2023-02-14T20:48:11.044Z,7.77
2023-02-14T20:50:42.653Z,7.78
2023-02-14T20:53:12.931Z,7.80
2023-02-14T20:55:44.949Z,7.76
2023-02-14T20:58:13.756Z,7.70
2023-02-14T21:00:42.665Z,7.69
2023-02-14T21:03:11.200Z,7.70
2023-02-14T21:05:40.527Z,7.63
2023-02-14T21:08:13.615Z,7.56
2023-02-14T21:10:43.878Z,7.62
2023-02-14T21:13:12.642Z,7.58
2023-02-14T21:15:41.276Z,7.54
2023-02-14T21:18:10.215Z,7.36
2023-02-14T21:20:39.118Z,7.29
2023-02-14T21:23:07.688Z,7.18
2023-02-14T21:25:38.058Z,7.36
2023-02-14T21:28:06.646Z,7.29
2023-02-14T21:30:35.418Z,7.18
2023-02-14T21:33:04.369Z,7.09
2023-02-14T21:35:32.864Z,7.20
2023-02-14T21:38:01.460Z,7.21
2023-02-14T21:40:30.058Z,7.14
2023-02-14T21:43:03.933Z,7.12
2023-02-14T21:45:49.951Z,7.12
2023-02-14T21:48:35.824Z,7.11
2023-02-14T21:51:07.792Z,6.91
2023-02-14T21:53:36.618Z,6.94
2023-02-14T21:56:10.588Z,7.02
2023-02-14T21:58:44.122Z,6.79
2023-02-14T22:01:18.334Z,6.91
2023-02-14T22:03:47.744Z,6.83
2023-02-14T22:06:17.132Z,6.84
2023-02-14T22:08:46.154Z,6.85
2023-02-14T22:11:17.449Z,6.77
2023-02-14T22:13:47.676Z,6.82
2023-02-14T22:16:20.806Z,6.80
2023-02-14T22:19:06.146Z,6.64
2023-02-14T22:21:35.026Z,6.58
2023-02-14T22:24:04.088Z,6.61
2023-02-14T22:26:38.696Z,6.61
2023-02-14T22:29:12.010Z,6.53
2023-02-14T22:31:44.383Z,6.34
2023-02-14T22:34:17.752Z,6.39
2023-02-14T22:36:46.831Z,6.45
2023-02-14T22:39:17.577Z,6.29
2023-02-14T22:41:48.823Z,6.42
2023-02-14T22:44:19.639Z,6.39
2023-02-14T22:46:49.389Z,6.37
2023-02-14T22:49:18.023Z,6.43
2023-02-14T22:51:46.821Z,6.35
2023-02-14T22:54:17.646Z,6.36
2023-02-14T22:56:50.250Z,6.35
2023-02-14T22:59:23.339Z,6.36
2023-02-14T23:01:54.211Z,6.30
2023-02-14T23:04:27.118Z,6.35
2023-02-14T23:06:55.808Z,6.25
2023-02-14T23:09:25.580Z,6.09
2023-02-14T23:11:54.056Z,6.19
2023-02-14T23:14:41.241Z,6.25
2023-02-14T23:17:36.773Z,6.22
2023-02-14T23:20:23.364Z,6.18
2023-02-14T23:22:52.192Z,6.16
2023-02-14T23:25:21.071Z,6.18
2023-02-14T23:27:49.899Z,6.17
2023-02-14T23:30:21.198Z,5.94
2023-02-14T23:32:49.805Z,5.88
2023-02-14T23:35:18.668Z,5.95
2023-02-14T23:37:47.878Z,5.82
2023-02-14T23:40:16.652Z,5.90
2023-02-14T23:42:45.339Z,5.93
2023-02-14T23:45:31.653Z,5.93
2023-02-14T23:48:05.651Z,5.84
2023-02-14T23:50:34.509Z,5.90
2023-02-14T23:53:03.121Z,5.91
2023-02-14T23:55:31.999Z,5.81
2023-02-14T23:58:01.349Z,5.81
